createdAt,value
2023-05-08T00:01:31.822Z,1.60
2023-05-08T00:04:00.700Z,1.90
2023-05-08T00:06:29.688Z,1.23
2023-05-08T00:08:58.343Z,1.67
2023-05-08T00:11:29.491Z,1.55
2023-05-08T00:13:58.623Z,1.63
2023-05-08T00:16:28.021Z,1.90
2023-05-08T00:18:57.658Z,1.77
2023-05-08T00:21:26.626Z,2.22
2023-05-08T00:23:55.575Z,2.08
2023-05-08T00:26:26.781Z,2.10
2023-05-08T00:28:58.940Z,2.17
2023-05-08T00:31:27.836Z,2.00
2023-05-08T00:33:56.807Z,2.40
2023-05-08T00:36:26.582Z,2.22
2023-05-08T00:38:57.640Z,2.17
2023-05-08T00:41:26.691Z,2.15
2023-05-08T00:43:55.808Z,2.47
2023-05-08T00:46:34.426Z,2.67
2023-05-08T00:49:05.723Z,2.92
2023-05-08T00:51:37.712Z,2.65
2023-05-08T00:54:09.715Z,2.67
2023-05-08T00:56:39.207Z,2.53
2023-05-08T00:59:14.788Z,2.20
2023-05-08T01:01:51.244Z,2.80
2023-05-08T01:04:25.767Z,2.65
2023-05-08T01:07:00.119Z,2.28
2023-05-08T01:09:29.509Z,2.92
2023-05-08T01:15:23.032Z,3.15
2023-05-08T01:18:01.530Z,3.00
2023-05-08T01:20:38.126Z,3.40
2023-05-08T01:23:45.396Z,3.20
2023-05-08T01:26:43.289Z,3.30
2023-05-08T01:29:34.570Z,3.25
2023-05-08T01:32:26.003Z,3.72
2023-05-08T01:35:13.333Z,3.60
2023-05-08T01:37:50.430Z,3.40
2023-05-08T01:40:34.654Z,4.07
2023-05-08T01:43:15.121Z,3.03
2023-05-08T01:45:50.586Z,3.53
2023-05-08T01:48:33.956Z,3.30
2023-05-08T01:51:08.030Z,3.15
2023-05-08T01:53:45.047Z,3.58
2023-05-08T01:56:19.004Z,3.50
2023-05-08T01:58:55.647Z,3.97
2023-05-08T02:01:29.687Z,2.90
2023-05-08T02:04:03.358Z,3.17
2023-05-08T02:06:39.668Z,2.30
2023-05-08T02:09:13.254Z,2.97
2023-05-08T02:11:45.225Z,2.70
2023-05-08T02:14:21.268Z,2.50
2023-05-08T02:16:53.229Z,2.35
2023-05-08T02:19:27.774Z,2.70
2023-05-08T02:22:01.523Z,2.63
2023-05-08T02:24:32.845Z,2.60
2023-05-08T02:27:02.272Z,2.70
2023-05-08T02:29:32.100Z,2.47
2023-05-08T02:32:07.058Z,2.47
2023-05-08T02:34:39.467Z,2.20
2023-05-08T02:37:13.467Z,2.40
2023-05-08T02:39:49.750Z,2.13
2023-05-08T02:42:23.889Z,2.20
2023-05-08T02:44:53.061Z,2.22
2023-05-08T02:47:31.246Z,2.17
2023-05-08T02:50:45.985Z,2.83
2023-05-08T02:53:26.151Z,2.40
2023-05-08T02:56:00.863Z,2.25
2023-05-08T02:58:45.489Z,2.00
2023-05-08T03:01:29.493Z,2.22
2023-05-08T03:04:11.706Z,2.20
2023-05-08T03:06:47.518Z,1.95
2023-05-08T03:09:21.374Z,2.40
2023-05-08T03:12:09.314Z,1.90
2023-05-08T03:14:47.132Z,1.95
2023-05-08T03:17:23.520Z,1.92
2023-05-08T03:19:59.995Z,1.85
2023-05-08T03:22:31.897Z,1.85
2023-05-08T03:25:11.175Z,1.70
2023-05-08T03:27:44.690Z,1.38
2023-05-08T03:30:15.433Z,1.50
2023-05-08T03:32:48.805Z,1.40
2023-05-08T03:35:18.482Z,1.50
2023-05-08T03:37:49.980Z,1.50
2023-05-08T03:40:22.561Z,1.50
2023-05-08T03:42:53.182Z,1.55
2023-05-08T03:45:29.099Z,1.63
2023-05-08T03:48:01.382Z,1.50
2023-05-08T03:50:36.800Z,1.20
2023-05-08T03:53:07.771Z,1.30
2023-05-08T03:55:39.974Z,1.02
2023-05-08T03:58:19.503Z,1.20
2023-05-08T04:01:00.004Z,1.23
2023-05-08T04:04:03.777Z,1.08
2023-05-08T04:06:48.751Z,1.40
2023-05-08T04:09:52.379Z,1.27
2023-05-08T04:12:26.948Z,1.27
2023-05-08T04:15:10.813Z,1.50
2023-05-08T04:17:52.719Z,1.33
2023-05-08T04:20:26.684Z,1.20
2023-05-08T04:22:58.538Z,1.50
2023-05-08T04:25:31.557Z,1.50
2023-05-08T04:28:04.369Z,1.40
2023-05-08T04:30:37.513Z,1.50
2023-05-08T04:33:09.235Z,1.85
2023-05-08T04:35:41.481Z,1.70
2023-05-08T04:38:11.411Z,1.88
2023-05-08T04:40:47.153Z,2.10
2023-05-08T04:43:17.033Z,1.58
2023-05-08T04:45:55.472Z,1.88
2023-05-08T04:48:26.424Z,1.67
2023-05-08T04:50:58.673Z,2.03
2023-05-08T04:53:31.307Z,2.08
2023-05-08T04:56:01.238Z,1.80
2023-05-08T04:58:34.122Z,1.70
2023-05-08T05:01:07.822Z,1.83
2023-05-08T05:03:40.428Z,1.83
2023-05-08T05:06:10.325Z,2.30
2023-05-08T05:08:42.237Z,2.15
2023-05-08T05:11:11.962Z,1.70
2023-05-08T05:13:44.521Z,1.80
2023-05-08T05:16:16.556Z,1.98
2023-05-08T05:18:46.741Z,1.98
2023-05-08T05:21:18.709Z,1.55
2023-05-08T05:23:48.746Z,1.67
2023-05-08T05:26:22.226Z,1.55
2023-05-08T05:28:56.181Z,1.70
2023-05-08T05:31:26.318Z,1.35
2023-05-08T05:33:58.200Z,1.70
2023-05-08T05:36:28.242Z,1.95
2023-05-08T05:39:00.202Z,1.80
2023-05-08T05:44:03.748Z,1.40
2023-05-08T05:46:44.475Z,1.35
2023-05-08T05:49:18.887Z,1.60
2023-05-08T05:51:49.112Z,1.40
2023-05-08T05:54:20.742Z,1.48
2023-05-08T05:56:53.882Z,1.50
2023-05-08T05:59:26.986Z,1.10
2023-05-08T06:02:03.103Z,1.42
2023-05-08T06:04:37.669Z,1.20
2023-05-08T06:07:15.186Z,1.33
2023-05-08T06:09:51.752Z,1.30
2023-05-08T06:12:32.612Z,1.50
2023-05-08T06:15:08.677Z,1.20
2023-05-08T06:17:43.836Z,1.60
2023-05-08T06:20:16.123Z,1.27
2023-05-08T06:22:47.728Z,1.60
2023-05-08T06:25:18.215Z,1.75
2023-05-08T06:27:52.282Z,1.20
2023-05-08T06:30:26.953Z,1.60
2023-05-08T06:33:00.701Z,1.30
2023-05-08T06:35:33.005Z,1.60
2023-05-08T06:38:11.229Z,1.48
2023-05-08T06:40:51.387Z,1.60
2023-05-08T06:43:26.696Z,1.33
2023-05-08T06:46:00.980Z,2.05
2023-05-08T06:48:39.915Z,1.58
2023-05-08T06:51:13.301Z,1.60
2023-05-08T06:53:43.522Z,1.70
2023-05-08T06:56:18.100Z,1.38
2023-05-08T06:59:07.203Z,1.83
2023-05-08T07:01:45.908Z,1.40
2023-05-08T07:04:22.347Z,1.60
2023-05-08T07:06:54.465Z,1.52
2023-05-08T07:09:26.267Z,1.52
2023-05-08T07:11:58.389Z,1.42
2023-05-08T07:14:28.221Z,1.58
2023-05-08T07:17:07.381Z,1.45
2023-05-08T07:19:42.288Z,1.50
2023-05-08T07:22:14.940Z,1.65
2023-05-08T07:24:51.127Z,1.45
2023-05-08T07:27:22.443Z,1.50
2023-05-08T07:29:59.081Z,1.20
2023-05-08T07:32:41.588Z,1.30
2023-05-08T07:35:13.392Z,1.58
2023-05-08T07:37:42.994Z,1.48
2023-05-08T07:40:20.534Z,1.60
2023-05-08T07:42:54.759Z,1.42
2023-05-08T07:45:28.411Z,1.40
2023-05-08T07:47:59.823Z,1.33
2023-05-08T07:50:35.355Z,1.40
2023-05-08T07:53:07.207Z,1.33
2023-05-08T07:55:41.017Z,1.05
2023-05-08T07:58:15.899Z,1.13
2023-05-08T08:03:18.121Z,1.08
2023-05-08T08:05:50.327Z,0.93
2023-05-08T08:08:22.437Z,1.17
2023-05-08T08:10:54.450Z,1.15
2023-05-08T08:13:29.606Z,1.30
2023-05-08T08:16:05.264Z,1.27
2023-05-08T08:18:39.037Z,1.50
2023-05-08T08:21:17.435Z,1.92
2023-05-08T08:23:46.523Z,1.90
2023-05-08T08:26:18.725Z,1.27
2023-05-08T08:28:55.448Z,1.63
2023-05-08T08:31:28.091Z,1.38
2023-05-08T08:34:00.278Z,1.27
2023-05-08T08:36:31.634Z,1.42
2023-05-08T08:39:06.287Z,1.23
2023-05-08T08:41:40.972Z,1.20
2023-05-08T08:44:10.889Z,1.00
2023-05-08T08:46:53.761Z,1.00
2023-05-08T08:49:36.562Z,1.40
2023-05-08T08:52:17.479Z,1.50
2023-05-08T08:54:52.630Z,1.35
2023-05-08T08:57:29.907Z,1.70
2023-05-08T09:00:00.762Z,1.75
2023-05-08T09:02:36.214Z,1.50
2023-05-08T09:05:05.886Z,1.50
2023-05-08T09:07:38.363Z,1.95
2023-05-08T09:10:15.910Z,1.67
2023-05-08T09:12:51.510Z,2.03
2023-05-08T09:15:28.001Z,1.77
2023-05-08T09:18:04.841Z,1.70
2023-05-08T09:20:35.578Z,1.42
2023-05-08T09:23:09.303Z,1.63
2023-05-08T09:25:49.701Z,1.52
2023-05-08T09:28:36.453Z,1.85
2023-05-08T09:31:08.182Z,1.35
2023-05-08T09:33:46.165Z,1.42
2023-05-08T09:36:29.203Z,2.50
2023-05-08T09:38:58.650Z,1.55
2023-05-08T09:41:32.594Z,1.73
2023-05-08T09:44:05.672Z,1.60
2023-05-08T09:46:46.109Z,2.00
2023-05-08T09:49:21.834Z,2.00
2023-05-08T09:51:54.736Z,1.50
2023-05-08T09:54:26.455Z,1.98
2023-05-08T09:57:00.210Z,1.77
2023-05-08T09:59:37.243Z,1.92
2023-05-08T10:02:16.684Z,1.67
2023-05-08T10:04:45.608Z,2.75
2023-05-08T10:07:27.715Z,1.80
2023-05-08T10:10:07.153Z,1.90
2023-05-08T10:12:38.492Z,2.63
2023-05-08T10:15:10.432Z,2.15
2023-05-08T10:17:47.965Z,2.25
2023-05-08T10:20:41.132Z,2.78
2023-05-08T10:23:16.171Z,2.40
2023-05-08T10:25:54.802Z,2.60
2023-05-08T10:31:09.093Z,2.20
2023-05-08T10:33:42.907Z,2.33
2023-05-08T10:36:17.806Z,2.35
2023-05-08T10:38:52.558Z,2.00
2023-05-08T10:41:23.802Z,1.88
2023-05-08T10:43:58.804Z,2.20
2023-05-08T10:46:54.166Z,2.10
2023-05-08T10:49:49.457Z,2.00
2023-05-08T10:55:29.020Z,2.13
2023-05-08T10:58:29.853Z,2.45
2023-05-08T11:01:08.064Z,2.47
2023-05-08T11:03:44.778Z,2.38
2023-05-08T11:06:17.825Z,3.30
2023-05-08T11:08:52.021Z,2.60
2023-05-08T11:11:27.488Z,2.63
2023-05-08T11:14:04.086Z,2.75
2023-05-08T11:16:55.398Z,3.10
2023-05-08T11:19:26.833Z,2.90
2023-05-08T11:22:12.217Z,2.50
2023-05-08T11:25:00.202Z,3.17
2023-05-08T11:27:41.913Z,3.45
2023-05-08T11:30:33.306Z,3.00
2023-05-08T11:33:08.113Z,2.65
2023-05-08T11:35:49.956Z,2.75
2023-05-08T11:39:05.439Z,2.53
2023-05-08T11:41:34.949Z,2.13
2023-05-08T11:44:10.872Z,2.45
2023-05-08T11:46:54.326Z,2.70
2023-05-08T11:49:30.529Z,2.13
2023-05-08T11:52:06.775Z,2.30
2023-05-08T11:54:39.800Z,2.03
2023-05-08T11:57:11.509Z,1.92
2023-05-08T11:59:44.152Z,2.78
2023-05-08T12:02:16.279Z,2.20
2023-05-08T12:04:51.705Z,2.20
2023-05-08T12:07:28.219Z,2.05
2023-05-08T12:10:01.817Z,2.17
2023-05-08T12:12:44.519Z,1.92
2023-05-08T12:15:19.354Z,2.30
2023-05-08T12:18:09.887Z,2.30
2023-05-08T12:20:46.483Z,2.45
2023-05-08T12:23:21.384Z,2.30
2023-05-08T12:25:57.101Z,2.40
2023-05-08T12:28:32.941Z,2.83
2023-05-08T12:31:03.097Z,3.08
2023-05-08T12:33:39.378Z,2.97
2023-05-08T12:36:17.437Z,3.78
2023-05-08T12:39:09.450Z,3.70
2023-05-08T12:41:50.297Z,3.17
2023-05-08T12:44:31.049Z,3.97
2023-05-08T12:47:08.958Z,3.60
2023-05-08T12:49:42.452Z,3.42
2023-05-08T12:52:16.913Z,4.10
2023-05-08T12:54:49.069Z,4.07
2023-05-08T12:57:26.100Z,4.00
2023-05-08T13:00:05.325Z,3.80
2023-05-08T13:02:44.566Z,3.80
2023-05-08T13:05:25.254Z,3.90
2023-05-08T13:08:14.760Z,3.42
2023-05-08T13:10:47.811Z,3.05
2023-05-08T13:13:22.026Z,3.38
2023-05-08T13:15:56.221Z,3.00
2023-05-08T13:18:31.175Z,2.97
2023-05-08T13:23:43.957Z,3.50
2023-05-08T13:26:22.917Z,4.40
2023-05-08T13:28:54.681Z,3.38
2023-05-08T13:31:30.244Z,3.30
2023-05-08T13:34:04.887Z,2.83
2023-05-08T13:36:39.876Z,2.60
2023-05-08T13:39:12.270Z,2.65
2023-05-08T13:41:44.032Z,2.58
2023-05-08T13:44:16.754Z,2.42
2023-05-08T13:46:49.846Z,2.60
2023-05-08T13:49:26.688Z,2.20
2023-05-08T13:52:00.047Z,2.03
2023-05-08T13:54:34.729Z,2.13
2023-05-08T13:57:09.214Z,2.60
2023-05-08T13:59:39.744Z,2.70
2023-05-08T14:02:14.737Z,2.88
2023-05-08T14:04:49.104Z,2.30
2023-05-08T14:07:21.169Z,2.47
2023-05-08T14:09:51.260Z,2.60
2023-05-08T14:12:23.727Z,2.45
2023-05-08T14:14:53.970Z,2.65
2023-05-08T14:17:29.772Z,2.28
2023-05-08T14:20:04.364Z,2.33
2023-05-08T14:22:41.084Z,2.65
2023-05-08T14:25:13.666Z,2.53
2023-05-08T14:27:43.047Z,2.50
2023-05-08T14:30:15.734Z,2.22
2023-05-08T14:32:45.126Z,2.78
2023-05-08T14:35:16.984Z,2.13
2023-05-08T14:37:51.577Z,1.95
2023-05-08T14:40:24.676Z,1.90
2023-05-08T14:42:56.306Z,2.30
2023-05-08T14:45:27.370Z,1.85
2023-05-08T14:47:58.072Z,1.80
2023-05-08T14:50:34.093Z,2.33
2023-05-08T14:53:08.994Z,2.17
2023-05-08T14:55:41.205Z,1.75
2023-05-08T14:58:17.771Z,2.00
2023-05-08T15:00:47.423Z,1.65
2023-05-08T15:03:22.150Z,1.63
2023-05-08T15:06:02.623Z,1.67
2023-05-08T15:08:34.703Z,1.33
2023-05-08T15:11:08.258Z,1.20
2023-05-08T15:13:42.749Z,1.70
2023-05-08T15:16:18.283Z,1.50
2023-05-08T15:18:48.179Z,1.35
2023-05-08T15:21:22.167Z,1.00
2023-05-08T15:23:58.740Z,1.20
2023-05-08T15:26:30.829Z,0.93
2023-05-08T15:29:04.741Z,0.82
2023-05-08T15:31:37.357Z,0.80
2023-05-08T15:34:11.361Z,0.80
2023-05-08T15:36:43.187Z,0.98
2023-05-08T15:39:19.407Z,0.82
2023-05-08T15:41:50.795Z,0.60
2023-05-08T15:44:20.883Z,0.65
2023-05-08T15:46:55.537Z,0.50
2023-05-08T15:49:29.892Z,0.95
2023-05-08T15:52:03.778Z,0.80
2023-05-08T15:54:39.776Z,1.10
2023-05-08T15:57:12.469Z,1.00
2023-05-08T15:59:45.410Z,0.90
2023-05-08T16:02:19.171Z,1.30
2023-05-08T16:04:53.399Z,1.27
2023-05-08T16:07:25.185Z,0.85
2023-05-08T16:09:54.465Z,1.00
2023-05-08T16:12:26.136Z,0.80
2023-05-08T16:14:58.435Z,0.68
2023-05-08T16:17:33.123Z,0.90
2023-05-08T16:20:04.411Z,0.63
2023-05-08T16:22:46.337Z,0.95
2023-05-08T16:25:20.816Z,0.90
2023-05-08T16:27:53.741Z,0.75
2023-05-08T16:30:24.410Z,0.90
2023-05-08T16:32:54.783Z,0.80
2023-05-08T16:35:30.092Z,0.75
2023-05-08T16:38:00.641Z,0.95
2023-05-08T16:40:36.334Z,0.93
2023-05-08T16:43:06.371Z,1.10
2023-05-08T16:45:39.332Z,0.93
2023-05-08T16:48:13.800Z,0.88
2023-05-08T16:50:44.420Z,0.63
2023-05-08T16:53:14.189Z,0.82
2023-05-08T16:55:51.930Z,0.60
2023-05-08T16:58:23.242Z,0.70
2023-05-08T17:00:53.785Z,0.55
2023-05-08T17:03:24.784Z,0.70
2023-05-08T17:05:54.891Z,0.68
2023-05-08T17:08:26.859Z,0.82
2023-05-08T17:10:56.368Z,0.90
2023-05-08T17:13:32.465Z,0.82
2023-05-08T17:16:07.547Z,1.00
2023-05-08T17:18:41.825Z,1.33
2023-05-08T17:21:13.312Z,0.80
2023-05-08T17:23:43.034Z,1.02
2023-05-08T17:26:15.894Z,0.77
2023-05-08T17:28:48.320Z,0.90
2023-05-08T17:31:18.430Z,0.90
2023-05-08T17:33:50.597Z,0.77
2023-05-08T17:36:25.523Z,0.65
2023-05-08T17:38:59.856Z,0.90
2023-05-08T17:41:37.075Z,1.02
2023-05-08T17:44:07.623Z,0.90
2023-05-08T17:46:41.790Z,0.82
2023-05-08T17:49:19.359Z,1.00
2023-05-08T17:51:52.172Z,1.08
2023-05-08T17:54:32.146Z,1.00
2023-05-08T17:57:02.207Z,0.80
2023-05-08T17:59:31.826Z,1.20
2023-05-08T18:02:04.968Z,1.00
2023-05-08T18:04:37.238Z,1.00
2023-05-08T18:07:11.965Z,1.17
2023-05-08T18:09:47.514Z,1.05
2023-05-08T18:12:21.107Z,1.05
2023-05-08T18:15:02.728Z,1.02
2023-05-08T18:17:37.960Z,0.80
2023-05-08T18:20:08.625Z,0.98
2023-05-08T18:22:38.102Z,0.90
2023-05-08T18:25:11.687Z,0.90
2023-05-08T18:27:49.226Z,0.95
2023-05-08T18:30:26.503Z,1.02
2023-05-08T18:32:58.564Z,1.30
2023-05-08T18:35:32.560Z,1.23
2023-05-08T18:38:07.868Z,0.93
2023-05-08T18:40:37.892Z,0.75
2023-05-08T18:43:10.278Z,0.82
2023-05-08T18:45:47.278Z,0.82
2023-05-08T18:48:21.248Z,1.00
2023-05-08T18:50:52.974Z,2.65
2023-05-08T18:53:26.802Z,1.23
2023-05-08T18:55:56.514Z,1.20
2023-05-08T18:58:29.230Z,0.77
2023-05-08T19:01:00.068Z,0.90
2023-05-08T19:03:34.524Z,1.05
2023-05-08T19:06:07.247Z,0.90
2023-05-08T19:08:39.152Z,1.00
2023-05-08T19:11:13.665Z,1.00
2023-05-08T19:13:52.456Z,0.68
2023-05-08T19:16:25.508Z,0.90
2023-05-08T19:18:58.892Z,0.90
2023-05-08T19:21:30.514Z,0.70
2023-05-08T19:24:02.071Z,0.73
2023-05-08T19:26:40.768Z,0.68
2023-05-08T19:29:10.058Z,0.77
2023-05-08T19:31:43.939Z,0.65
2023-05-08T19:34:17.963Z,0.52
2023-05-08T19:36:47.551Z,0.90
2023-05-08T19:39:19.866Z,0.60
2023-05-08T19:41:51.220Z,0.77
2023-05-08T19:44:27.280Z,2.38
2023-05-08T19:46:56.818Z,1.50
2023-05-08T19:49:28.759Z,1.10
2023-05-08T19:52:00.008Z,0.73
2023-05-08T19:54:33.380Z,0.70
2023-05-08T19:57:05.444Z,0.60
2023-05-08T19:59:34.873Z,1.10
2023-05-08T20:02:10.071Z,0.82
2023-05-08T20:04:57.391Z,0.70
2023-05-08T20:07:36.861Z,0.73
2023-05-08T20:10:08.429Z,0.65
2023-05-08T20:12:40.334Z,0.88
2023-05-08T20:15:13.374Z,0.80
2023-05-08T20:17:49.805Z,0.38
2023-05-08T20:20:25.833Z,4.07
2023-05-08T20:22:58.548Z,1.17
2023-05-08T20:28:05.121Z,0.70
2023-05-08T20:30:37.157Z,0.60
2023-05-08T20:33:09.285Z,0.57
2023-05-08T20:35:42.218Z,0.50
2023-05-08T20:38:16.542Z,0.68
2023-05-08T20:40:48.523Z,0.50
2023-05-08T20:43:20.049Z,0.60
2023-05-08T20:45:50.652Z,0.40
2023-05-08T20:48:21.912Z,0.60
2023-05-08T20:50:50.742Z,0.60
2023-05-08T20:53:25.542Z,0.60
2023-05-08T20:56:01.579Z,0.55
2023-05-08T20:58:32.968Z,0.73
2023-05-08T21:01:05.122Z,1.13
2023-05-08T21:03:36.637Z,0.80
2023-05-08T21:06:11.021Z,0.70
2023-05-08T21:08:42.030Z,0.80
2023-05-08T21:11:12.050Z,0.80
2023-05-08T21:13:45.050Z,0.85
2023-05-08T21:16:16.456Z,0.80
2023-05-08T21:18:46.200Z,1.20
2023-05-08T21:21:18.126Z,0.90
2023-05-08T21:23:51.018Z,0.90
2023-05-08T21:26:28.420Z,0.70
2023-05-08T21:29:01.316Z,0.70
2023-05-08T21:31:37.521Z,1.08
2023-05-08T21:34:13.893Z,1.13
2023-05-08T21:36:46.303Z,0.68
2023-05-08T21:39:19.564Z,0.90
2023-05-08T21:41:48.661Z,0.90
2023-05-08T21:44:22.494Z,1.27
2023-05-08T21:46:54.746Z,0.82
2023-05-08T21:49:26.245Z,0.90
2023-05-08T21:51:58.964Z,1.27
2023-05-08T21:54:36.716Z,1.23
2023-05-08T21:57:08.192Z,1.10
2023-05-08T21:59:45.030Z,1.17
2023-05-08T22:02:15.063Z,1.10
2023-05-08T22:04:44.874Z,1.10
2023-05-08T22:07:17.335Z,1.02
2023-05-08T22:09:46.481Z,1.45
2023-05-08T22:12:19.402Z,1.00
2023-05-08T22:14:54.894Z,1.33
2023-05-08T22:17:32.200Z,1.58
2023-05-08T22:20:04.815Z,1.23
2023-05-08T22:22:33.879Z,1.23
2023-05-08T22:25:10.070Z,1.25
2023-05-08T22:27:40.006Z,1.13
2023-05-08T22:30:11.946Z,1.10
2023-05-08T22:32:43.256Z,1.08
2023-05-08T22:35:13.110Z,1.20
2023-05-08T22:37:46.414Z,1.10
2023-05-08T22:40:16.123Z,1.20
2023-05-08T22:42:48.360Z,1.30
2023-05-08T22:45:21.524Z,1.10
2023-05-08T22:47:55.357Z,0.90
2023-05-08T22:50:26.501Z,0.90
2023-05-08T22:52:58.404Z,0.80
2023-05-08T22:55:31.689Z,0.98
2023-05-08T22:58:06.504Z,1.00
2023-05-08T23:00:40.707Z,0.75
2023-05-08T23:03:12.245Z,0.90
2023-05-08T23:05:41.318Z,0.90
2023-05-08T23:08:12.756Z,0.70
2023-05-08T23:10:41.909Z,0.80
2023-05-08T23:13:15.516Z,1.00
2023-05-08T23:15:49.994Z,1.10
2023-05-08T23:18:21.792Z,0.98
2023-05-08T23:20:54.687Z,1.00
2023-05-08T23:23:28.056Z,1.00
2023-05-08T23:26:01.584Z,1.00
2023-05-08T23:28:33.998Z,1.20
2023-05-08T23:31:04.905Z,0.88
2023-05-08T23:33:37.450Z,1.00
2023-05-08T23:36:13.805Z,1.20
2023-05-08T23:38:46.736Z,1.38
2023-05-08T23:41:22.999Z,0.90
2023-05-08T23:43:55.979Z,0.95
2023-05-08T23:46:29.712Z,0.90
2023-05-08T23:48:58.687Z,1.23
2023-05-08T23:51:33.701Z,1.05
2023-05-08T23:54:09.380Z,0.82
2023-05-08T23:56:38.808Z,1.25
2023-05-08T23:59:08.237Z,1.10
